sensor_id;sensor_type;location;lat;lon;timestamp;pressure;altitude;pressure_sealevel;temperature;humidity
69153;BME280;56261;51.580;4.578;2022-10-01T00:00:24;100281.03;;;11.19;100.00
69153;BME280;56261;51.580;4.578;2022-10-01T00:02:54;100290.25;;;11.17;100.00
69153;BME280;56261;51.580;4.578;2022-10-01T00:05:20;100290.03;;;11.18;100.00
69153;BME280;56261;51.580;4.578;2022-10-01T00:07:46;100292.63;;;11.27;100.00
69153;BME280;56261;51.580;4.578;2022-10-01T00:10:13;100290.59;;;11.29;100.00
69153;BME280;56261;51.580;4.578;2022-10-01T00:12:43;100286.19;;;11.21;100.00
69153;BME280;56261;51.580;4.578;2022-10-01T00:15:10;100282.50;;;11.22;100.00
69153;BME280;56261;51.580;4.578;2022-10-01T00:17:36;100289.50;;;11.23;100.00
69153;BME280;56261;51.580;4.578;2022-10-01T00:20:03;100305.13;;;11.26;100.00
69153;BME280;56261;51.580;4.578;2022-10-01T00:22:30;100301.38;;;11.20;100.00
69153;BME280;56261;51.580;4.578;2022-10-01T00:24:57;100293.19;;;11.22;100.00
69153;BME280;56261;51.580;4.578;2022-10-01T00:27:24;100298.69;;;11.20;100.00
69153;BME280;56261;51.580;4.578;2022-10-01T00:29:50;100273.94;;;11.12;100.00
69153;BME280;56261;51.580;4.578;2022-10-01T00:32:15;100254.91;;;11.15;100.00
69153;BME280;56261;51.580;4.578;2022-10-01T00:34:41;100254.72;;;11.16;100.00
69153;BME280;56261;51.580;4.578;2022-10-01T00:37:06;100263.09;;;11.13;100.00
69153;BME280;56261;51.580;4.578;2022-10-01T00:39:35;100263.47;;;11.10;100.00
69153;BME280;56261;51.580;4.578;2022-10-01T00:42:02;100257.56;;;11.15;100.00
69153;BME280;56261;51.580;4.578;2022-10-01T00:44:32;100253.53;;;11.19;100.00
69153;BME280;56261;51.580;4.578;2022-10-01T00:49:42;100302.00;;;11.22;100.00
69153;BME280;56261;51.580;4.578;2022-10-01T00:52:12;100278.69;;;11.31;100.00
69153;BME280;56261;51.580;4.578;2022-10-01T00:54:48;100279.34;;;11.33;100.00
69153;BME280;56261;51.580;4.578;2022-10-01T00:57:18;100269.94;;;11.37;100.00
69153;BME280;56261;51.580;4.578;2022-10-01T00:59:44;100261.84;;;11.31;100.00
69153;BME280;56261;51.580;4.578;2022-10-01T01:02:10;100233.88;;;11.27;100.00
69153;BME280;56261;51.580;4.578;2022-10-01T01:04:37;100240.09;;;11.34;100.00
69153;BME280;56261;51.580;4.578;2022-10-01T01:07:04;100237.38;;;11.27;100.00
69153;BME280;56261;51.580;4.578;2022-10-01T01:09:51;100218.03;;;11.25;100.00
69153;BME280;56261;51.580;4.578;2022-10-01T01:17:46;100221.28;;;11.20;100.00
69153;BME280;56261;51.580;4.578;2022-10-01T01:21:09;100217.97;;;11.18;100.00
69153;BME280;56261;51.580;4.578;2022-10-01T01:23:40;100195.44;;;11.21;100.00
69153;BME280;56261;51.580;4.578;2022-10-01T01:28:38;100186.34;;;11.15;100.00
69153;BME280;56261;51.580;4.578;2022-10-01T01:31:09;100190.16;;;11.28;100.00
69153;BME280;56261;51.580;4.578;2022-10-01T01:33:38;100179.84;;;11.25;100.00
69153;BME280;56261;51.580;4.578;2022-10-01T01:36:17;100195.06;;;11.24;100.00
69153;BME280;56261;51.580;4.578;2022-10-01T01:38:48;100185.75;;;11.20;100.00
69153;BME280;56261;51.580;4.578;2022-10-01T01:41:17;100179.50;;;11.28;100.00
69153;BME280;56261;51.580;4.578;2022-10-01T01:43:45;100183.34;;;11.25;100.00
69153;BME280;56261;51.580;4.578;2022-10-01T01:46:13;100188.25;;;11.21;100.00
69153;BME280;56261;51.580;4.578;2022-10-01T01:48:43;100190.34;;;11.26;100.00
69153;BME280;56261;51.580;4.578;2022-10-01T01:51:17;100175.78;;;11.29;100.00
69153;BME280;56261;51.580;4.578;2022-10-01T01:53:44;100176.19;;;11.26;100.00
69153;BME280;56261;51.580;4.578;2022-10-01T01:56:10;65690.97;;;-146.16;100.00
69153;BME280;56261;51.580;4.578;2022-10-01T01:58:36;65690.97;;;-146.16;100.00
69153;BME280;56261;51.580;4.578;2022-10-01T02:01:03;65690.97;;;-146.16;100.00
69153;BME280;56261;51.580;4.578;2022-10-01T02:03:29;65690.97;;;-146.16;100.00
69153;BME280;56261;51.580;4.578;2022-10-01T02:08:50;65690.97;;;-146.16;100.00
69153;BME280;56261;51.580;4.578;2022-10-01T02:11:27;65690.97;;;-146.16;100.00
69153;BME280;56261;51.580;4.578;2022-10-01T02:14:07;65690.97;;;-146.16;100.00
69153;BME280;56261;51.580;4.578;2022-10-01T02:16:49;65690.97;;;-146.16;100.00
69153;BME280;56261;51.580;4.578;2022-10-01T02:19:56;65690.97;;;-146.16;100.00
69153;BME280;56261;51.580;4.578;2022-10-01T02:22:43;65690.97;;;-146.16;100.00
69153;BME280;56261;51.580;4.578;2022-10-01T02:25:12;65690.97;;;-146.16;100.00
69153;BME280;56261;51.580;4.578;2022-10-01T02:27:52;65690.97;;;-146.16;100.00
69153;BME280;56261;51.580;4.578;2022-10-01T02:30:20;65690.97;;;-146.16;100.00
69153;BME280;56261;51.580;4.578;2022-10-01T02:32:48;65690.97;;;-146.16;100.00
69153;BME280;56261;51.580;4.578;2022-10-01T02:35:15;65690.97;;;-146.16;100.00
69153;BME280;56261;51.580;4.578;2022-10-01T02:37:44;65690.97;;;-146.16;100.00
69153;BME280;56261;51.580;4.578;2022-10-01T02:40:15;65690.97;;;-146.16;100.00
69153;BME280;56261;51.580;4.578;2022-10-01T02:42:47;65690.97;;;-146.16;100.00
69153;BME280;56261;51.580;4.578;2022-10-01T02:45:16;65690.97;;;-146.16;100.00
69153;BME280;56261;51.580;4.578;2022-10-01T02:47:50;65690.97;;;-146.16;100.00
69153;BME280;56261;51.580;4.578;2022-10-01T02:50:17;65690.97;;;-146.16;100.00
69153;BME280;56261;51.580;4.578;2022-10-01T02:53:01;65690.97;;;-146.16;100.00
69153;BME280;56261;51.580;4.578;2022-10-01T02:55:34;65690.97;;;-146.16;100.00
69153;BME280;56261;51.580;4.578;2022-10-01T02:58:00;65690.97;;;-146.16;100.00
69153;BME280;56261;51.580;4.578;2022-10-01T03:00:26;65690.97;;;-146.16;100.00
69153;BME280;56261;51.580;4.578;2022-10-01T03:02:53;65690.97;;;-146.16;100.00
69153;BME280;56261;51.580;4.578;2022-10-01T03:05:18;65690.97;;;-146.16;100.00
69153;BME280;56261;51.580;4.578;2022-10-01T03:07:45;65690.97;;;-146.16;100.00
69153;BME280;56261;51.580;4.578;2022-10-01T03:10:12;65690.97;;;-146.16;100.00
69153;BME280;56261;51.580;4.578;2022-10-01T03:12:41;65690.97;;;-146.16;100.00
69153;BME280;56261;51.580;4.578;2022-10-01T03:15:09;65690.97;;;-146.16;100.00
69153;BME280;56261;51.580;4.578;2022-10-01T03:17:34;65690.97;;;-146.16;100.00
69153;BME280;56261;51.580;4.578;2022-10-01T03:20:01;65690.97;;;-146.16;100.00
69153;BME280;56261;51.580;4.578;2022-10-01T03:22:27;65690.97;;;-146.16;100.00
69153;BME280;56261;51.580;4.578;2022-10-01T03:24:52;65690.97;;;-146.16;100.00
69153;BME280;56261;51.580;4.578;2022-10-01T03:27:19;65690.97;;;-146.16;100.00
69153;BME280;56261;51.580;4.578;2022-10-01T03:29:45;65690.97;;;-146.16;100.00
69153;BME280;56261;51.580;4.578;2022-10-01T03:32:11;65690.97;;;-146.16;100.00
69153;BME280;56261;51.580;4.578;2022-10-01T03:34:37;65690.97;;;-146.16;100.00
69153;BME280;56261;51.580;4.578;2022-10-01T03:37:03;65690.97;;;-146.16;100.00
69153;BME280;56261;51.580;4.578;2022-10-01T03:39:28;65690.97;;;-146.16;100.00
69153;BME280;56261;51.580;4.578;2022-10-01T03:41:54;65690.97;;;-146.16;100.00
69153;BME280;56261;51.580;4.578;2022-10-01T03:44:19;65690.97;;;-146.16;100.00
69153;BME280;56261;51.580;4.578;2022-10-01T03:46:45;65690.97;;;-146.16;100.00
69153;BME280;56261;51.580;4.578;2022-10-01T03:49:10;65690.97;;;-146.16;100.00
69153;BME280;56261;51.580;4.578;2022-10-01T03:51:36;65690.97;;;-146.16;100.00
69153;BME280;56261;51.580;4.578;2022-10-01T03:54:03;65690.97;;;-146.16;100.00
69153;BME280;56261;51.580;4.578;2022-10-01T03:56:29;65690.97;;;-146.16;100.00
69153;BME280;56261;51.580;4.578;2022-10-01T03:58:54;65690.97;;;-146.16;100.00
69153;BME280;56261;51.580;4.578;2022-10-01T04:01:20;65690.97;;;-146.16;100.00
69153;BME280;56261;51.580;4.578;2022-10-01T04:03:45;65690.97;;;-146.16;100.00
69153;BME280;56261;51.580;4.578;2022-10-01T04:06:11;65690.97;;;-146.16;100.00
69153;BME280;56261;51.580;4.578;2022-10-01T04:08:37;65690.97;;;-146.16;100.00
69153;BME280;56261;51.580;4.578;2022-10-01T04:11:04;65690.97;;;-146.16;100.00
69153;BME280;56261;51.580;4.578;2022-10-01T04:13:30;65690.97;;;-146.16;100.00
69153;BME280;56261;51.580;4.578;2022-10-01T04:15:56;65690.97;;;-146.16;100.00
69153;BME280;56261;51.580;4.578;2022-10-01T04:18:21;65690.97;;;-146.16;100.00
69153;BME280;56261;51.580;4.578;2022-10-01T04:20:47;65690.97;;;-146.16;100.00
69153;BME280;56261;51.580;4.578;2022-10-01T04:23:13;65690.97;;;-146.16;100.00
69153;BME280;56261;51.580;4.578;2022-10-01T04:25:39;65690.97;;;-146.16;100.00
69153;BME280;56261;51.580;4.578;2022-10-01T04:28:07;65690.97;;;-146.16;100.00
69153;BME280;56261;51.580;4.578;2022-10-01T04:30:36;65690.97;;;-146.16;100.00
69153;BME280;56261;51.580;4.578;2022-10-01T04:33:03;65690.97;;;-146.16;100.00
69153;BME280;56261;51.580;4.578;2022-10-01T04:35:29;65690.97;;;-146.16;100.00
69153;BME280;56261;51.580;4.578;2022-10-01T04:37:56;65690.97;;;-146.16;100.00
69153;BME280;56261;51.580;4.578;2022-10-01T04:40:22;65690.97;;;-146.16;100.00
69153;BME280;56261;51.580;4.578;2022-10-01T04:42:48;65690.97;;;-146.16;100.00
69153;BME280;56261;51.580;4.578;2022-10-01T04:45:13;65690.97;;;-146.16;100.00
69153;BME280;56261;51.580;4.578;2022-10-01T04:47:46;65690.97;;;-146.16;100.00
69153;BME280;56261;51.580;4.578;2022-10-01T04:50:13;65690.97;;;-146.16;100.00
69153;BME280;56261;51.580;4.578;2022-10-01T04:52:40;65690.97;;;-146.16;100.00
69153;BME280;56261;51.580;4.578;2022-10-01T04:55:05;65690.97;;;-146.16;100.00
69153;BME280;56261;51.580;4.578;2022-10-01T04:57:31;65690.97;;;-146.16;100.00
69153;BME280;56261;51.580;4.578;2022-10-01T04:59:57;65690.97;;;-146.16;100.00
69153;BME280;56261;51.580;4.578;2022-10-01T05:02:23;65690.97;;;-146.16;100.00
69153;BME280;56261;51.580;4.578;2022-10-01T05:04:48;65690.97;;;-146.16;100.00
69153;BME280;56261;51.580;4.578;2022-10-01T05:07:14;65690.97;;;-146.16;100.00
69153;BME280;56261;51.580;4.578;2022-10-01T05:09:39;65690.97;;;-146.16;100.00
69153;BME280;56261;51.580;4.578;2022-10-01T05:12:04;65690.97;;;-146.16;100.00
69153;BME280;56261;51.580;4.578;2022-10-01T05:14:32;65690.97;;;-146.16;100.00
69153;BME280;56261;51.580;4.578;2022-10-01T05:16:58;65690.97;;;-146.16;100.00
69153;BME280;56261;51.580;4.578;2022-10-01T05:19:23;65690.97;;;-146.16;100.00
69153;BME280;56261;51.580;4.578;2022-10-01T05:21:48;65690.97;;;-146.16;100.00
69153;BME280;56261;51.580;4.578;2022-10-01T05:24:15;65690.97;;;-146.16;100.00
69153;BME280;56261;51.580;4.578;2022-10-01T05:26:41;65690.97;;;-146.16;100.00
69153;BME280;56261;51.580;4.578;2022-10-01T05:29:06;65690.97;;;-146.16;100.00
69153;BME280;56261;51.580;4.578;2022-10-01T05:31:32;65690.97;;;-146.16;100.00
69153;BME280;56261;51.580;4.578;2022-10-01T05:33:58;65690.97;;;-146.16;100.00
69153;BME280;56261;51.580;4.578;2022-10-01T05:36:24;65690.97;;;-146.16;100.00
69153;BME280;56261;51.580;4.578;2022-10-01T05:38:49;65690.97;;;-146.16;100.00
69153;BME280;56261;51.580;4.578;2022-10-01T05:41:17;65690.97;;;-146.16;100.00
69153;BME280;56261;51.580;4.578;2022-10-01T05:43:42;65690.97;;;-146.16;100.00
69153;BME280;56261;51.580;4.578;2022-10-01T05:46:08;65690.97;;;-146.16;100.00
69153;BME280;56261;51.580;4.578;2022-10-01T05:48:35;65690.97;;;-146.16;100.00
69153;BME280;56261;51.580;4.578;2022-10-01T05:51:03;65690.97;;;-146.16;100.00
69153;BME280;56261;51.580;4.578;2022-10-01T05:53:31;65690.97;;;-146.16;100.00
69153;BME280;56261;51.580;4.578;2022-10-01T05:55:58;65690.97;;;-146.16;100.00
69153;BME280;56261;51.580;4.578;2022-10-01T05:58:26;65690.97;;;-146.16;100.00
69153;BME280;56261;51.580;4.578;2022-10-01T06:00:54;65690.97;;;-146.16;100.00
69153;BME280;56261;51.580;4.578;2022-10-01T06:03:20;65690.97;;;-146.16;100.00
69153;BME280;56261;51.580;4.578;2022-10-01T06:05:45;65690.97;;;-146.16;100.00
69153;BME280;56261;51.580;4.578;2022-10-01T06:08:11;65690.97;;;-146.16;100.00
69153;BME280;56261;51.580;4.578;2022-10-01T06:10:37;65690.97;;;-146.16;100.00
69153;BME280;56261;51.580;4.578;2022-10-01T06:13:03;65690.97;;;-146.16;100.00
69153;BME280;56261;51.580;4.578;2022-10-01T06:15:34;65690.97;;;-146.16;100.00
69153;BME280;56261;51.580;4.578;2022-10-01T06:18:11;65690.97;;;-146.16;100.00
69153;BME280;56261;51.580;4.578;2022-10-01T06:20:38;65690.97;;;-146.16;100.00
69153;BME280;56261;51.580;4.578;2022-10-01T06:23:06;65690.97;;;-146.16;100.00
69153;BME280;56261;51.580;4.578;2022-10-01T06:25:34;65690.97;;;-146.16;100.00
69153;BME280;56261;51.580;4.578;2022-10-01T06:28:01;65690.97;;;-146.16;100.00
69153;BME280;56261;51.580;4.578;2022-10-01T06:30:28;65690.97;;;-146.16;100.00
69153;BME280;56261;51.580;4.578;2022-10-01T06:32:59;65690.97;;;-146.16;100.00
69153;BME280;56261;51.580;4.578;2022-10-01T06:35:27;65690.97;;;-146.16;100.00
69153;BME280;56261;51.580;4.578;2022-10-01T06:37:52;65690.97;;;-146.16;100.00
69153;BME280;56261;51.580;4.578;2022-10-01T06:40:17;65690.97;;;-146.16;100.00
69153;BME280;56261;51.580;4.578;2022-10-01T06:42:47;65690.97;;;-146.16;100.00
69153;BME280;56261;51.580;4.578;2022-10-01T06:45:13;65690.97;;;-146.16;100.00
69153;BME280;56261;51.580;4.578;2022-10-01T06:47:40;65690.97;;;-146.16;100.00
69153;BME280;56261;51.580;4.578;2022-10-01T06:50:05;65690.97;;;-146.16;100.00
69153;BME280;56261;51.580;4.578;2022-10-01T06:52:31;65690.97;;;-146.16;100.00
69153;BME280;56261;51.580;4.578;2022-10-01T06:55:19;65690.97;;;-146.16;100.00
69153;BME280;56261;51.580;4.578;2022-10-01T06:57:45;65690.97;;;-146.16;100.00
69153;BME280;56261;51.580;4.578;2022-10-01T07:00:12;65690.97;;;-146.16;100.00
69153;BME280;56261;51.580;4.578;2022-10-01T07:02:38;65690.97;;;-146.16;100.00
69153;BME280;56261;51.580;4.578;2022-10-01T07:05:04;65690.97;;;-146.16;100.00
69153;BME280;56261;51.580;4.578;2022-10-01T07:07:30;65690.97;;;-146.16;100.00
69153;BME280;56261;51.580;4.578;2022-10-01T07:10:00;65690.97;;;-146.16;100.00
69153;BME280;56261;51.580;4.578;2022-10-01T07:12:26;65690.97;;;-146.16;100.00
69153;BME280;56261;51.580;4.578;2022-10-01T07:14:53;65690.97;;;-146.16;100.00
69153;BME280;56261;51.580;4.578;2022-10-01T07:17:19;65690.97;;;-146.16;100.00
69153;BME280;56261;51.580;4.578;2022-10-01T07:19:44;65690.97;;;-146.16;100.00
69153;BME280;56261;51.580;4.578;2022-10-01T07:22:10;65690.97;;;-146.16;100.00
69153;BME280;56261;51.580;4.578;2022-10-01T07:24:35;65690.97;;;-146.16;100.00
69153;BME280;56261;51.580;4.578;2022-10-01T07:27:01;65690.97;;;-146.16;100.00
69153;BME280;56261;51.580;4.578;2022-10-01T07:29:26;65690.97;;;-146.16;100.00
69153;BME280;56261;51.580;4.578;2022-10-01T07:31:57;65690.97;;;-146.16;100.00
69153;BME280;56261;51.580;4.578;2022-10-01T07:34:24;65690.97;;;-146.16;100.00
69153;BME280;56261;51.580;4.578;2022-10-01T07:36:50;65690.97;;;-146.16;100.00
69153;BME280;56261;51.580;4.578;2022-10-01T07:39:15;65690.97;;;-146.16;100.00
69153;BME280;56261;51.580;4.578;2022-10-01T07:41:41;65690.97;;;-146.16;100.00
69153;BME280;56261;51.580;4.578;2022-10-01T07:44:08;65690.97;;;-146.16;100.00
69153;BME280;56261;51.580;4.578;2022-10-01T07:46:36;65690.97;;;-146.16;100.00
69153;BME280;56261;51.580;4.578;2022-10-01T07:49:01;65690.97;;;-146.16;100.00
69153;BME280;56261;51.580;4.578;2022-10-01T07:51:27;65690.97;;;-146.16;100.00
69153;BME280;56261;51.580;4.578;2022-10-01T07:53:52;65690.97;;;-146.16;100.00
69153;BME280;56261;51.580;4.578;2022-10-01T07:56:18;65690.97;;;-146.16;100.00
69153;BME280;56261;51.580;4.578;2022-10-01T07:58:43;65690.97;;;-146.16;100.00
69153;BME280;56261;51.580;4.578;2022-10-01T08:01:08;65690.97;;;-146.16;100.00
69153;BME280;56261;51.580;4.578;2022-10-01T08:03:34;65690.97;;;-146.16;100.00
69153;BME280;56261;51.580;4.578;2022-10-01T08:06:00;65690.97;;;-146.16;100.00
69153;BME280;56261;51.580;4.578;2022-10-01T08:08:31;65690.97;;;-146.16;100.00
69153;BME280;56261;51.580;4.578;2022-10-01T08:10:57;65690.97;;;-146.16;100.00
69153;BME280;56261;51.580;4.578;2022-10-01T08:13:22;65690.97;;;-146.16;100.00
69153;BME280;56261;51.580;4.578;2022-10-01T08:15:50;65690.97;;;-146.16;100.00
69153;BME280;56261;51.580;4.578;2022-10-01T08:18:22;65690.97;;;-146.16;100.00
69153;BME280;56261;51.580;4.578;2022-10-01T08:20:48;65690.97;;;-146.16;100.00
69153;BME280;56261;51.580;4.578;2022-10-01T08:23:15;65690.97;;;-146.16;100.00
69153;BME280;56261;51.580;4.578;2022-10-01T08:25:42;65690.97;;;-146.16;100.00
69153;BME280;56261;51.580;4.578;2022-10-01T08:28:09;65690.97;;;-146.16;100.00
69153;BME280;56261;51.580;4.578;2022-10-01T08:30:39;65690.97;;;-146.16;100.00
69153;BME280;56261;51.580;4.578;2022-10-01T08:33:06;65690.97;;;-146.16;100.00
69153;BME280;56261;51.580;4.578;2022-10-01T08:35:32;65690.97;;;-146.16;100.00
69153;BME280;56261;51.580;4.578;2022-10-01T08:38:01;65690.97;;;-146.16;100.00
69153;BME280;56261;51.580;4.578;2022-10-01T08:40:27;65690.97;;;-146.16;100.00
69153;BME280;56261;51.580;4.578;2022-10-01T08:43:02;65690.97;;;-146.16;100.00
69153;BME280;56261;51.580;4.578;2022-10-01T08:45:45;65690.97;;;-146.16;100.00
69153;BME280;56261;51.580;4.578;2022-10-01T08:51:31;65690.97;;;-146.16;100.00
69153;BME280;56261;51.580;4.578;2022-10-01T08:57:00;65690.97;;;-146.16;100.00
69153;BME280;56261;51.580;4.578;2022-10-01T09:01:54;65690.97;;;-146.16;100.00
69153;BME280;56261;51.580;4.578;2022-10-01T09:04:20;65690.97;;;-146.16;100.00
69153;BME280;56261;51.580;4.578;2022-10-01T09:06:48;65690.97;;;-146.16;100.00
69153;BME280;56261;51.580;4.578;2022-10-01T09:09:30;65690.97;;;-146.16;100.00
69153;BME280;56261;51.580;4.578;2022-10-01T09:12:04;65690.97;;;-146.16;100.00
69153;BME280;56261;51.580;4.578;2022-10-01T09:15:12;65690.97;;;-146.16;100.00
69153;BME280;56261;51.580;4.578;2022-10-01T09:17:47;65690.97;;;-146.16;100.00
69153;BME280;56261;51.580;4.578;2022-10-01T09:20:53;65690.97;;;-146.16;100.00
69153;BME280;56261;51.580;4.578;2022-10-01T09:25:44;65690.97;;;-146.16;100.00
69153;BME280;56261;51.580;4.578;2022-10-01T09:28:18;65690.97;;;-146.16;100.00
69153;BME280;56261;51.580;4.578;2022-10-01T09:33:16;65690.97;;;-146.16;100.00
69153;BME280;56261;51.580;4.578;2022-10-01T09:35:55;65690.97;;;-146.16;100.00
69153;BME280;56261;51.580;4.578;2022-10-01T09:38:41;65690.97;;;-146.16;100.00
69153;BME280;56261;51.580;4.578;2022-10-01T09:41:09;65690.97;;;-146.16;100.00
69153;BME280;56261;51.580;4.578;2022-10-01T09:43:39;65690.97;;;-146.16;100.00
69153;BME280;56261;51.580;4.578;2022-10-01T09:46:07;65690.97;;;-146.16;100.00
69153;BME280;56261;51.580;4.578;2022-10-01T09:51:28;65690.97;;;-146.16;100.00
69153;BME280;56261;51.580;4.578;2022-10-01T09:54:08;65690.97;;;-146.16;100.00
69153;BME280;56261;51.580;4.578;2022-10-01T09:56:47;65690.97;;;-146.16;100.00
69153;BME280;56261;51.580;4.578;2022-10-01T09:59:19;65690.97;;;-146.16;100.00
69153;BME280;56261;51.580;4.578;2022-10-01T10:01:52;65690.97;;;-146.16;100.00
69153;BME280;56261;51.580;4.578;2022-10-01T10:04:20;65690.97;;;-146.16;100.00
69153;BME280;56261;51.580;4.578;2022-10-01T10:06:48;65690.97;;;-146.16;100.00
69153;BME280;56261;51.580;4.578;2022-10-01T10:09:23;65690.97;;;-146.16;100.00
69153;BME280;56261;51.580;4.578;2022-10-01T10:11:52;65690.97;;;-146.16;100.00
69153;BME280;56261;51.580;4.578;2022-10-01T10:14:35;65690.97;;;-146.16;100.00
69153;BME280;56261;51.580;4.578;2022-10-01T10:17:15;65690.97;;;-146.16;100.00
69153;BME280;56261;51.580;4.578;2022-10-01T10:19:46;65690.97;;;-146.16;100.00
69153;BME280;56261;51.580;4.578;2022-10-01T10:22:33;65690.97;;;-146.16;100.00
69153;BME280;56261;51.580;4.578;2022-10-01T10:25:10;65690.97;;;-146.16;100.00
69153;BME280;56261;51.580;4.578;2022-10-01T10:27:35;65690.97;;;-146.16;100.00
69153;BME280;56261;51.580;4.578;2022-10-01T10:30:15;65690.97;;;-146.16;100.00
69153;BME280;56261;51.580;4.578;2022-10-01T10:32:42;65690.97;;;-146.16;100.00
69153;BME280;56261;51.580;4.578;2022-10-01T10:35:11;65690.97;;;-146.16;100.00
69153;BME280;56261;51.580;4.578;2022-10-01T10:37:48;65690.97;;;-146.16;100.00
69153;BME280;56261;51.580;4.578;2022-10-01T10:40:21;65690.97;;;-146.16;100.00
69153;BME280;56261;51.580;4.578;2022-10-01T10:42:52;65690.97;;;-146.16;100.00
69153;BME280;56261;51.580;4.578;2022-10-01T10:45:20;65690.97;;;-146.16;100.00
69153;BME280;56261;51.580;4.578;2022-10-01T10:47:50;65690.97;;;-146.16;100.00
69153;BME280;56261;51.580;4.578;2022-10-01T10:50:37;65690.97;;;-146.16;100.00
69153;BME280;56261;51.580;4.578;2022-10-01T10:56:01;65690.97;;;-146.16;100.00
69153;BME280;56261;51.580;4.578;2022-10-01T10:58:29;65690.97;;;-146.16;100.00
69153;BME280;56261;51.580;4.578;2022-10-01T11:00:58;65690.97;;;-146.16;100.00
69153;BME280;56261;51.580;4.578;2022-10-01T11:03:27;65690.97;;;-146.16;100.00
69153;BME280;56261;51.580;4.578;2022-10-01T11:06:00;65690.97;;;-146.16;100.00
69153;BME280;56261;51.580;4.578;2022-10-01T11:08:27;65690.97;;;-146.16;100.00
69153;BME280;56261;51.580;4.578;2022-10-01T11:24:59;65690.97;;;-146.16;100.00
69153;BME280;56261;51.580;4.578;2022-10-01T11:30:25;65690.97;;;-146.16;100.00
69153;BME280;56261;51.580;4.578;2022-10-01T11:35:46;65690.97;;;-146.16;100.00
69153;BME280;56261;51.580;4.578;2022-10-01T11:38:55;65690.97;;;-146.16;100.00
69153;BME280;56261;51.580;4.578;2022-10-01T11:41:39;65690.97;;;-146.16;100.00
69153;BME280;56261;51.580;4.578;2022-10-01T11:44:52;65690.97;;;-146.16;100.00
69153;BME280;56261;51.580;4.578;2022-10-01T11:47:31;65690.97;;;-146.16;100.00
69153;BME280;56261;51.580;4.578;2022-10-01T11:50:24;65690.97;;;-146.16;100.00
69153;BME280;56261;51.580;4.578;2022-10-01T11:53:14;65690.97;;;-146.16;100.00
69153;BME280;56261;51.580;4.578;2022-10-01T11:55:57;65690.97;;;-146.16;100.00
69153;BME280;56261;51.580;4.578;2022-10-01T11:58:57;65690.97;;;-146.16;100.00
69153;BME280;56261;51.580;4.578;2022-10-01T12:01:34;65690.97;;;-146.16;100.00
69153;BME280;56261;51.580;4.578;2022-10-01T12:04:04;65690.97;;;-146.16;100.00
69153;BME280;56261;51.580;4.578;2022-10-01T12:06:36;65690.97;;;-146.16;100.00
69153;BME280;56261;51.580;4.578;2022-10-01T12:09:11;65690.97;;;-146.16;100.00
69153;BME280;56261;51.580;4.578;2022-10-01T12:11:48;65690.97;;;-146.16;100.00
69153;BME280;56261;51.580;4.578;2022-10-01T12:14:23;65690.97;;;-146.16;100.00
69153;BME280;56261;51.580;4.578;2022-10-01T12:17:04;65690.97;;;-146.16;100.00
69153;BME280;56261;51.580;4.578;2022-10-01T12:19:36;65690.97;;;-146.16;100.00
69153;BME280;56261;51.580;4.578;2022-10-01T12:22:24;65690.97;;;-146.16;100.00
69153;BME280;56261;51.580;4.578;2022-10-01T12:24:51;65690.97;;;-146.16;100.00
69153;BME280;56261;51.580;4.578;2022-10-01T12:27:33;65690.97;;;-146.16;100.00
69153;BME280;56261;51.580;4.578;2022-10-01T12:30:19;65690.97;;;-146.16;100.00
69153;BME280;56261;51.580;4.578;2022-10-01T12:35:54;65690.97;;;-146.16;100.00
69153;BME280;56261;51.580;4.578;2022-10-01T12:47:06;65690.97;;;-146.16;100.00
69153;BME280;56261;51.580;4.578;2022-10-01T12:49:45;65690.97;;;-146.16;100.00
69153;BME280;56261;51.580;4.578;2022-10-01T12:55:30;65690.97;;;-146.16;100.00
69153;BME280;56261;51.580;4.578;2022-10-01T13:04:01;65690.97;;;-146.16;100.00
69153;BME280;56261;51.580;4.578;2022-10-01T13:14:26;65690.97;;;-146.16;100.00
69153;BME280;56261;51.580;4.578;2022-10-01T13:17:03;65690.97;;;-146.16;100.00
69153;BME280;56261;51.580;4.578;2022-10-01T13:19:44;65690.97;;;-146.16;100.00
69153;BME280;56261;51.580;4.578;2022-10-01T13:28:07;65690.97;;;-146.16;100.00
69153;BME280;56261;51.580;4.578;2022-10-01T13:30:59;65690.97;;;-146.16;100.00
69153;BME280;56261;51.580;4.578;2022-10-01T13:33:30;65690.97;;;-146.16;100.00
69153;BME280;56261;51.580;4.578;2022-10-01T13:36:02;65690.97;;;-146.16;100.00
69153;BME280;56261;51.580;4.578;2022-10-01T13:41:00;65690.97;;;-146.16;100.00
69153;BME280;56261;51.580;4.578;2022-10-01T13:43:26;65690.97;;;-146.16;100.00
69153;BME280;56261;51.580;4.578;2022-10-01T13:45:53;65690.97;;;-146.16;100.00
69153;BME280;56261;51.580;4.578;2022-10-01T13:48:27;65690.97;;;-146.16;100.00
69153;BME280;56261;51.580;4.578;2022-10-01T13:51:07;65690.97;;;-146.16;100.00
69153;BME280;56261;51.580;4.578;2022-10-01T13:56:13;65690.97;;;-146.16;100.00
69153;BME280;56261;51.580;4.578;2022-10-01T13:58:52;65690.97;;;-146.16;100.00
69153;BME280;56261;51.580;4.578;2022-10-01T14:03:47;65690.97;;;-146.16;100.00
69153;BME280;56261;51.580;4.578;2022-10-01T14:06:18;65690.97;;;-146.16;100.00
69153;BME280;56261;51.580;4.578;2022-10-01T14:08:49;65690.97;;;-146.16;100.00
69153;BME280;56261;51.580;4.578;2022-10-01T14:11:21;65690.97;;;-146.16;100.00
69153;BME280;56261;51.580;4.578;2022-10-01T14:14:19;65690.97;;;-146.16;100.00
69153;BME280;56261;51.580;4.578;2022-10-01T14:17:06;65690.97;;;-146.16;100.00
69153;BME280;56261;51.580;4.578;2022-10-01T14:19:33;65690.97;;;-146.16;100.00
69153;BME280;56261;51.580;4.578;2022-10-01T14:34:16;65690.97;;;-146.16;100.00